Cold Bay, Alaska
Current Conditions -  °F | °C
As of 8:32 AM on Thursday 23 Oct 2014 (Local Time) from PACD Reporting Station
Broken Clouds Broken Clouds  
Wind Chill: 30°   Ceiling: 2700
Heat Index: 38°   Visibility: 10mi
Dew Point: 36°   Wind: 14mph
Humidity: 93%   Direction: 310°NW
Pressure: 30.09"   Gusts: NA
Location:  55.18°N, 162.72°W
Report Text: PACD 231632Z 31012KT 10SM FEW015 BKN027 BKN033 03/02 A3009 RMK AO2 T00330022
Loading
Personal Weather Stations






























Interactive Weather Map
Tropical Storm Tracking
New forecast layout! Learn more

10-Day Weather Forecast

Advertisements
Track Severe Weather on mobile